sensor_id;sensor_type;location;lat;lon;timestamp;P1;durP1;ratioP1;P2;durP2;ratioP2
62832;SDS011;48891;49.220;6.920;2022-11-02T00:01:21;4.57;;;2.58;;
62832;SDS011;48891;49.220;6.920;2022-11-02T00:03:49;5.30;;;2.60;;
62832;SDS011;48891;49.220;6.920;2022-11-02T00:06:15;6.40;;;2.63;;
62832;SDS011;48891;49.220;6.920;2022-11-02T00:08:40;5.28;;;2.50;;
62832;SDS011;48891;49.220;6.920;2022-11-02T00:11:05;5.72;;;3.00;;
62832;SDS011;48891;49.220;6.920;2022-11-02T00:13:31;5.45;;;2.53;;
62832;SDS011;48891;49.220;6.920;2022-11-02T00:15:56;4.35;;;2.58;;
62832;SDS011;48891;49.220;6.920;2022-11-02T00:18:24;4.43;;;2.42;;
62832;SDS011;48891;49.220;6.920;2022-11-02T00:20:49;5.00;;;2.75;;
62832;SDS011;48891;49.220;6.920;2022-11-02T00:23:15;4.30;;;2.50;;
62832;SDS011;48891;49.220;6.920;2022-11-02T00:25:41;5.35;;;2.80;;
62832;SDS011;48891;49.220;6.920;2022-11-02T00:28:10;5.85;;;2.90;;
62832;SDS011;48891;49.220;6.920;2022-11-02T00:30:36;5.47;;;2.63;;
62832;SDS011;48891;49.220;6.920;2022-11-02T00:33:01;5.18;;;2.60;;
62832;SDS011;48891;49.220;6.920;2022-11-02T00:35:27;4.22;;;2.67;;
62832;SDS011;48891;49.220;6.920;2022-11-02T00:37:52;5.35;;;2.70;;
62832;SDS011;48891;49.220;6.920;2022-11-02T00:40:17;4.53;;;2.47;;
62832;SDS011;48891;49.220;6.920;2022-11-02T00:42:43;5.43;;;2.40;;
62832;SDS011;48891;49.220;6.920;2022-11-02T00:45:08;7.67;;;2.90;;
62832;SDS011;48891;49.220;6.920;2022-11-02T00:47:33;4.25;;;2.42;;
62832;SDS011;48891;49.220;6.920;2022-11-02T00:49:59;7.25;;;2.70;;
62832;SDS011;48891;49.220;6.920;2022-11-02T00:52:24;4.37;;;2.40;;
62832;SDS011;48891;49.220;6.920;2022-11-02T00:54:49;5.95;;;2.50;;
62832;SDS011;48891;49.220;6.920;2022-11-02T00:57:14;4.18;;;2.20;;
62832;SDS011;48891;49.220;6.920;2022-11-02T00:59:40;4.45;;;2.35;;
62832;SDS011;48891;49.220;6.920;2022-11-02T01:02:05;5.20;;;2.30;;
62832;SDS011;48891;49.220;6.920;2022-11-02T01:04:30;3.85;;;2.42;;
62832;SDS011;48891;49.220;6.920;2022-11-02T01:06:55;5.85;;;2.45;;
62832;SDS011;48891;49.220;6.920;2022-11-02T01:09:21;6.03;;;2.60;;
62832;SDS011;48891;49.220;6.920;2022-11-02T01:11:46;5.22;;;2.63;;
62832;SDS011;48891;49.220;6.920;2022-11-02T01:14:11;3.95;;;2.10;;
62832;SDS011;48891;49.220;6.920;2022-11-02T01:16:37;4.25;;;2.35;;
62832;SDS011;48891;49.220;6.920;2022-11-02T01:19:03;4.53;;;2.10;;
62832;SDS011;48891;49.220;6.920;2022-11-02T01:21:28;4.70;;;2.53;;
62832;SDS011;48891;49.220;6.920;2022-11-02T01:23:54;5.15;;;2.30;;
62832;SDS011;48891;49.220;6.920;2022-11-02T01:26:19;5.85;;;2.38;;
62832;SDS011;48891;49.220;6.920;2022-11-02T01:28:44;4.27;;;2.20;;
62832;SDS011;48891;49.220;6.920;2022-11-02T01:31:10;3.87;;;2.30;;
62832;SDS011;48891;49.220;6.920;2022-11-02T01:33:35;4.65;;;2.20;;
62832;SDS011;48891;49.220;6.920;2022-11-02T01:36:02;4.60;;;2.40;;
62832;SDS011;48891;49.220;6.920;2022-11-02T01:38:29;5.43;;;2.17;;
62832;SDS011;48891;49.220;6.920;2022-11-02T01:40:55;5.55;;;2.80;;
62832;SDS011;48891;49.220;6.920;2022-11-02T01:43:25;5.60;;;2.67;;
62832;SDS011;48891;49.220;6.920;2022-11-02T01:45:59;4.60;;;2.20;;
62832;SDS011;48891;49.220;6.920;2022-11-02T01:48:32;6.15;;;2.30;;
62832;SDS011;48891;49.220;6.920;2022-11-02T01:51:00;5.50;;;2.30;;
62832;SDS011;48891;49.220;6.920;2022-11-02T01:53:29;2.65;;;2.10;;
62832;SDS011;48891;49.220;6.920;2022-11-02T01:55:57;4.57;;;2.13;;
62832;SDS011;48891;49.220;6.920;2022-11-02T01:58:23;3.78;;;2.20;;
62832;SDS011;48891;49.220;6.920;2022-11-02T02:00:50;5.00;;;2.20;;
62832;SDS011;48891;49.220;6.920;2022-11-02T02:03:16;4.07;;;2.22;;
62832;SDS011;48891;49.220;6.920;2022-11-02T02:05:44;5.85;;;2.10;;
62832;SDS011;48891;49.220;6.920;2022-11-02T02:08:14;5.07;;;2.22;;
62832;SDS011;48891;49.220;6.920;2022-11-02T02:13:07;4.53;;;2.22;;
62832;SDS011;48891;49.220;6.920;2022-11-02T02:18:35;2.97;;;1.88;;
62832;SDS011;48891;49.220;6.920;2022-11-02T02:21:41;3.03;;;1.95;;
62832;SDS011;48891;49.220;6.920;2022-11-02T02:30:18;3.58;;;1.95;;
62832;SDS011;48891;49.220;6.920;2022-11-02T02:37:45;3.90;;;1.90;;
62832;SDS011;48891;49.220;6.920;2022-11-02T02:40:20;4.80;;;2.38;;
62832;SDS011;48891;49.220;6.920;2022-11-02T02:42:53;3.63;;;1.95;;
62832;SDS011;48891;49.220;6.920;2022-11-02T02:45:34;4.47;;;1.90;;
62832;SDS011;48891;49.220;6.920;2022-11-02T02:48:11;5.30;;;2.10;;
62832;SDS011;48891;49.220;6.920;2022-11-02T02:51:00;4.05;;;2.17;;
62832;SDS011;48891;49.220;6.920;2022-11-02T02:53:32;3.78;;;2.10;;
62832;SDS011;48891;49.220;6.920;2022-11-02T02:56:01;4.15;;;1.98;;
62832;SDS011;48891;49.220;6.920;2022-11-02T02:58:31;4.97;;;2.00;;
62832;SDS011;48891;49.220;6.920;2022-11-02T03:01:12;3.30;;;1.80;;
62832;SDS011;48891;49.220;6.920;2022-11-02T03:03:39;3.80;;;2.10;;
62832;SDS011;48891;49.220;6.920;2022-11-02T03:06:19;4.07;;;2.03;;
62832;SDS011;48891;49.220;6.920;2022-11-02T03:08:47;3.58;;;1.90;;
62832;SDS011;48891;49.220;6.920;2022-11-02T03:11:20;3.05;;;1.80;;
62832;SDS011;48891;49.220;6.920;2022-11-02T03:16:30;4.57;;;2.10;;
62832;SDS011;48891;49.220;6.920;2022-11-02T03:21:42;5.90;;;1.98;;
62832;SDS011;48891;49.220;6.920;2022-11-02T03:24:13;6.75;;;2.13;;
62832;SDS011;48891;49.220;6.920;2022-11-02T03:32:02;3.30;;;1.85;;
62832;SDS011;48891;49.220;6.920;2022-11-02T03:35:03;3.97;;;1.90;;
62832;SDS011;48891;49.220;6.920;2022-11-02T03:37:38;4.25;;;1.83;;
62832;SDS011;48891;49.220;6.920;2022-11-02T03:40:13;4.70;;;2.10;;
62832;SDS011;48891;49.220;6.920;2022-11-02T03:42:43;4.28;;;2.28;;
62832;SDS011;48891;49.220;6.920;2022-11-02T03:45:18;3.33;;;1.83;;
62832;SDS011;48891;49.220;6.920;2022-11-02T03:47:47;4.03;;;1.90;;
62832;SDS011;48891;49.220;6.920;2022-11-02T03:50:18;2.90;;;1.90;;
62832;SDS011;48891;49.220;6.920;2022-11-02T03:52:46;3.60;;;1.75;;
62832;SDS011;48891;49.220;6.920;2022-11-02T03:55:18;4.40;;;1.88;;
62832;SDS011;48891;49.220;6.920;2022-11-02T03:57:50;3.42;;;2.17;;
62832;SDS011;48891;49.220;6.920;2022-11-02T04:00:17;3.05;;;1.80;;
62832;SDS011;48891;49.220;6.920;2022-11-02T04:02:46;4.22;;;2.00;;
62832;SDS011;48891;49.220;6.920;2022-11-02T04:05:13;4.60;;;2.10;;
62832;SDS011;48891;49.220;6.920;2022-11-02T04:07:39;4.15;;;1.95;;
62832;SDS011;48891;49.220;6.920;2022-11-02T04:10:07;4.75;;;1.90;;
62832;SDS011;48891;49.220;6.920;2022-11-02T04:12:33;3.30;;;1.95;;
62832;SDS011;48891;49.220;6.920;2022-11-02T04:14:58;2.83;;;1.85;;
62832;SDS011;48891;49.220;6.920;2022-11-02T04:17:23;2.30;;;1.50;;
62832;SDS011;48891;49.220;6.920;2022-11-02T04:19:48;3.90;;;2.03;;
62832;SDS011;48891;49.220;6.920;2022-11-02T04:22:14;3.50;;;1.80;;
62832;SDS011;48891;49.220;6.920;2022-11-02T04:24:40;2.28;;;1.63;;
62832;SDS011;48891;49.220;6.920;2022-11-02T04:27:05;3.25;;;1.67;;
62832;SDS011;48891;49.220;6.920;2022-11-02T04:29:30;4.50;;;1.80;;
62832;SDS011;48891;49.220;6.920;2022-11-02T04:31:55;4.17;;;1.90;;
62832;SDS011;48891;49.220;6.920;2022-11-02T04:34:21;4.60;;;1.90;;
62832;SDS011;48891;49.220;6.920;2022-11-02T04:36:46;4.07;;;1.90;;
62832;SDS011;48891;49.220;6.920;2022-11-02T04:39:11;4.23;;;2.37;;
62832;SDS011;48891;49.220;6.920;2022-11-02T04:41:36;3.70;;;1.77;;
62832;SDS011;48891;49.220;6.920;2022-11-02T04:44:01;3.50;;;1.70;;
62832;SDS011;48891;49.220;6.920;2022-11-02T04:46:28;3.50;;;1.83;;
62832;SDS011;48891;49.220;6.920;2022-11-02T04:48:55;3.53;;;1.80;;
62832;SDS011;48891;49.220;6.920;2022-11-02T04:51:21;4.07;;;1.75;;
62832;SDS011;48891;49.220;6.920;2022-11-02T04:53:48;4.40;;;2.00;;
62832;SDS011;48891;49.220;6.920;2022-11-02T04:56:15;2.75;;;1.67;;
62832;SDS011;48891;49.220;6.920;2022-11-02T04:58:40;4.77;;;1.83;;
62832;SDS011;48891;49.220;6.920;2022-11-02T05:01:06;3.85;;;1.60;;
62832;SDS011;48891;49.220;6.920;2022-11-02T05:03:33;3.28;;;1.70;;
62832;SDS011;48891;49.220;6.920;2022-11-02T05:05:59;5.13;;;2.42;;
62832;SDS011;48891;49.220;6.920;2022-11-02T05:08:24;3.40;;;1.90;;
62832;SDS011;48891;49.220;6.920;2022-11-02T05:10:52;4.57;;;2.00;;
62832;SDS011;48891;49.220;6.920;2022-11-02T05:13:18;4.30;;;2.13;;
62832;SDS011;48891;49.220;6.920;2022-11-02T05:15:44;4.03;;;1.90;;
62832;SDS011;48891;49.220;6.920;2022-11-02T05:18:09;4.10;;;1.90;;
62832;SDS011;48891;49.220;6.920;2022-11-02T05:20:34;5.77;;;2.37;;
62832;SDS011;48891;49.220;6.920;2022-11-02T05:22:59;3.55;;;1.83;;
62832;SDS011;48891;49.220;6.920;2022-11-02T05:25:24;3.70;;;2.00;;
62832;SDS011;48891;49.220;6.920;2022-11-02T05:27:50;4.40;;;2.30;;
62832;SDS011;48891;49.220;6.920;2022-11-02T05:30:15;2.97;;;1.80;;
62832;SDS011;48891;49.220;6.920;2022-11-02T05:32:40;3.72;;;1.80;;
62832;SDS011;48891;49.220;6.920;2022-11-02T05:35:05;3.30;;;1.70;;
62832;SDS011;48891;49.220;6.920;2022-11-02T05:37:31;3.42;;;1.98;;
62832;SDS011;48891;49.220;6.920;2022-11-02T05:39:56;3.97;;;1.80;;
62832;SDS011;48891;49.220;6.920;2022-11-02T05:42:22;4.67;;;2.00;;
62832;SDS011;48891;49.220;6.920;2022-11-02T05:44:47;4.20;;;1.98;;
62832;SDS011;48891;49.220;6.920;2022-11-02T05:47:12;5.63;;;1.80;;
62832;SDS011;48891;49.220;6.920;2022-11-02T05:49:37;3.45;;;1.80;;
62832;SDS011;48891;49.220;6.920;2022-11-02T05:52:02;4.70;;;1.87;;
62832;SDS011;48891;49.220;6.920;2022-11-02T05:54:28;4.45;;;1.77;;
62832;SDS011;48891;49.220;6.920;2022-11-02T05:56:53;3.20;;;1.80;;
62832;SDS011;48891;49.220;6.920;2022-11-02T05:59:18;3.70;;;1.90;;
62832;SDS011;48891;49.220;6.920;2022-11-02T06:01:43;3.83;;;1.70;;
62832;SDS011;48891;49.220;6.920;2022-11-02T06:04:09;3.38;;;1.80;;
62832;SDS011;48891;49.220;6.920;2022-11-02T06:06:34;3.95;;;1.90;;
62832;SDS011;48891;49.220;6.920;2022-11-02T06:08:59;4.00;;;2.10;;
62832;SDS011;48891;49.220;6.920;2022-11-02T06:11:24;4.80;;;1.95;;
62832;SDS011;48891;49.220;6.920;2022-11-02T06:13:50;3.58;;;1.60;;
62832;SDS011;48891;49.220;6.920;2022-11-02T06:16:15;4.90;;;1.80;;
62832;SDS011;48891;49.220;6.920;2022-11-02T06:18:42;2.53;;;1.65;;
62832;SDS011;48891;49.220;6.920;2022-11-02T06:21:07;3.42;;;1.80;;
62832;SDS011;48891;49.220;6.920;2022-11-02T06:23:33;2.95;;;1.75;;
62832;SDS011;48891;49.220;6.920;2022-11-02T06:25:59;2.88;;;1.80;;
62832;SDS011;48891;49.220;6.920;2022-11-02T06:28:25;4.00;;;1.92;;
62832;SDS011;48891;49.220;6.920;2022-11-02T06:30:51;4.85;;;2.00;;
62832;SDS011;48891;49.220;6.920;2022-11-02T06:33:17;4.00;;;1.73;;
62832;SDS011;48891;49.220;6.920;2022-11-02T06:35:44;3.97;;;1.95;;
62832;SDS011;48891;49.220;6.920;2022-11-02T06:38:11;2.83;;;1.63;;
62832;SDS011;48891;49.220;6.920;2022-11-02T06:40:36;4.45;;;1.75;;
62832;SDS011;48891;49.220;6.920;2022-11-02T06:43:01;3.53;;;1.70;;
62832;SDS011;48891;49.220;6.920;2022-11-02T06:45:26;4.38;;;1.63;;
62832;SDS011;48891;49.220;6.920;2022-11-02T06:47:51;4.57;;;1.90;;
62832;SDS011;48891;49.220;6.920;2022-11-02T06:50:17;3.70;;;2.00;;
62832;SDS011;48891;49.220;6.920;2022-11-02T06:52:42;3.53;;;1.73;;
62832;SDS011;48891;49.220;6.920;2022-11-02T06:55:09;3.50;;;1.80;;
62832;SDS011;48891;49.220;6.920;2022-11-02T06:57:35;4.32;;;1.90;;
62832;SDS011;48891;49.220;6.920;2022-11-02T07:00:01;4.05;;;1.92;;
62832;SDS011;48891;49.220;6.920;2022-11-02T07:02:27;3.55;;;1.80;;
62832;SDS011;48891;49.220;6.920;2022-11-02T07:04:52;3.93;;;2.03;;
62832;SDS011;48891;49.220;6.920;2022-11-02T07:07:18;3.67;;;1.77;;
62832;SDS011;48891;49.220;6.920;2022-11-02T07:09:43;4.20;;;2.20;;
62832;SDS011;48891;49.220;6.920;2022-11-02T07:12:08;2.95;;;1.73;;
62832;SDS011;48891;49.220;6.920;2022-11-02T07:14:33;5.20;;;1.90;;
62832;SDS011;48891;49.220;6.920;2022-11-02T07:16:59;2.87;;;1.80;;
62832;SDS011;48891;49.220;6.920;2022-11-02T07:19:24;4.00;;;1.60;;
62832;SDS011;48891;49.220;6.920;2022-11-02T07:21:49;3.37;;;1.70;;
62832;SDS011;48891;49.220;6.920;2022-11-02T07:24:14;4.00;;;1.63;;
62832;SDS011;48891;49.220;6.920;2022-11-02T07:26:39;4.47;;;1.77;;
62832;SDS011;48891;49.220;6.920;2022-11-02T07:29:05;3.50;;;1.67;;
62832;SDS011;48891;49.220;6.920;2022-11-02T07:31:30;3.38;;;1.70;;
62832;SDS011;48891;49.220;6.920;2022-11-02T07:33:55;3.37;;;1.60;;
62832;SDS011;48891;49.220;6.920;2022-11-02T07:36:20;5.03;;;2.20;;
62832;SDS011;48891;49.220;6.920;2022-11-02T07:38:45;3.95;;;1.60;;
62832;SDS011;48891;49.220;6.920;2022-11-02T07:41:11;3.67;;;1.70;;
62832;SDS011;48891;49.220;6.920;2022-11-02T07:43:36;3.90;;;1.95;;
62832;SDS011;48891;49.220;6.920;2022-11-02T07:46:02;3.78;;;1.98;;
62832;SDS011;48891;49.220;6.920;2022-11-02T07:48:27;3.40;;;1.70;;
62832;SDS011;48891;49.220;6.920;2022-11-02T07:50:52;3.55;;;1.80;;
62832;SDS011;48891;49.220;6.920;2022-11-02T07:53:18;3.45;;;1.48;;
62832;SDS011;48891;49.220;6.920;2022-11-02T07:55:43;4.45;;;1.80;;
62832;SDS011;48891;49.220;6.920;2022-11-02T07:58:09;2.80;;;1.77;;
62832;SDS011;48891;49.220;6.920;2022-11-02T08:00:36;2.65;;;1.80;;
62832;SDS011;48891;49.220;6.920;2022-11-02T08:03:03;2.67;;;1.70;;
62832;SDS011;48891;49.220;6.920;2022-11-02T08:05:32;5.78;;;1.98;;
62832;SDS011;48891;49.220;6.920;2022-11-02T08:07:59;5.25;;;1.80;;
62832;SDS011;48891;49.220;6.920;2022-11-02T08:10:26;3.75;;;1.70;;
62832;SDS011;48891;49.220;6.920;2022-11-02T08:12:52;3.95;;;1.77;;
62832;SDS011;48891;49.220;6.920;2022-11-02T08:15:18;2.53;;;1.50;;
62832;SDS011;48891;49.220;6.920;2022-11-02T08:17:43;3.70;;;1.77;;
62832;SDS011;48891;49.220;6.920;2022-11-02T08:20:08;2.47;;;1.70;;
62832;SDS011;48891;49.220;6.920;2022-11-02T08:22:37;4.07;;;1.83;;
62832;SDS011;48891;49.220;6.920;2022-11-02T08:25:03;4.13;;;1.75;;
62832;SDS011;48891;49.220;6.920;2022-11-02T08:27:30;3.92;;;1.60;;
62832;SDS011;48891;49.220;6.920;2022-11-02T08:29:55;4.45;;;1.80;;
62832;SDS011;48891;49.220;6.920;2022-11-02T08:32:20;3.75;;;1.58;;
62832;SDS011;48891;49.220;6.920;2022-11-02T08:34:46;4.30;;;1.65;;
62832;SDS011;48891;49.220;6.920;2022-11-02T08:37:11;3.73;;;1.60;;
62832;SDS011;48891;49.220;6.920;2022-11-02T08:39:36;4.97;;;1.95;;
62832;SDS011;48891;49.220;6.920;2022-11-02T08:42:01;3.60;;;1.70;;
62832;SDS011;48891;49.220;6.920;2022-11-02T08:44:27;5.68;;;2.03;;
62832;SDS011;48891;49.220;6.920;2022-11-02T08:46:53;3.80;;;1.90;;
62832;SDS011;48891;49.220;6.920;2022-11-02T08:49:19;3.33;;;1.60;;
62832;SDS011;48891;49.220;6.920;2022-11-02T08:51:44;3.63;;;1.67;;
62832;SDS011;48891;49.220;6.920;2022-11-02T08:54:09;6.40;;;2.00;;
62832;SDS011;48891;49.220;6.920;2022-11-02T08:56:34;5.07;;;2.03;;
62832;SDS011;48891;49.220;6.920;2022-11-02T08:59:00;4.20;;;1.83;;
62832;SDS011;48891;49.220;6.920;2022-11-02T09:01:25;3.43;;;1.60;;
62832;SDS011;48891;49.220;6.920;2022-11-02T09:03:50;3.35;;;1.63;;
62832;SDS011;48891;49.220;6.920;2022-11-02T09:06:15;2.93;;;1.83;;
62832;SDS011;48891;49.220;6.920;2022-11-02T09:08:40;5.73;;;2.10;;
62832;SDS011;48891;49.220;6.920;2022-11-02T09:11:06;2.23;;;1.60;;
62832;SDS011;48891;49.220;6.920;2022-11-02T09:13:31;3.27;;;1.57;;
62832;SDS011;48891;49.220;6.920;2022-11-02T09:15:57;3.10;;;1.75;;
62832;SDS011;48891;49.220;6.920;2022-11-02T09:18:23;2.75;;;1.50;;
62832;SDS011;48891;49.220;6.920;2022-11-02T09:20:48;3.05;;;1.50;;
62832;SDS011;48891;49.220;6.920;2022-11-02T09:23:14;4.07;;;1.80;;
62832;SDS011;48891;49.220;6.920;2022-11-02T09:25:40;4.82;;;1.70;;
62832;SDS011;48891;49.220;6.920;2022-11-02T09:28:05;2.03;;;1.55;;
62832;SDS011;48891;49.220;6.920;2022-11-02T09:30:31;3.55;;;1.67;;
62832;SDS011;48891;49.220;6.920;2022-11-02T09:32:57;3.95;;;1.92;;
62832;SDS011;48891;49.220;6.920;2022-11-02T09:35:23;3.25;;;1.90;;
62832;SDS011;48891;49.220;6.920;2022-11-02T09:37:50;3.92;;;1.80;;
62832;SDS011;48891;49.220;6.920;2022-11-02T09:40:16;2.33;;;1.50;;
62832;SDS011;48891;49.220;6.920;2022-11-02T09:45:26;4.57;;;1.80;;
62832;SDS011;48891;49.220;6.920;2022-11-02T09:47:57;4.35;;;1.60;;
62832;SDS011;48891;49.220;6.920;2022-11-02T09:50:33;2.45;;;1.75;;
62832;SDS011;48891;49.220;6.920;2022-11-02T09:53:06;3.10;;;1.90;;
62832;SDS011;48891;49.220;6.920;2022-11-02T09:55:34;2.53;;;1.45;;
62832;SDS011;48891;49.220;6.920;2022-11-02T09:58:06;2.88;;;1.50;;
62832;SDS011;48891;49.220;6.920;2022-11-02T10:00:39;4.57;;;1.65;;
62832;SDS011;48891;49.220;6.920;2022-11-02T10:03:14;3.08;;;1.52;;
62832;SDS011;48891;49.220;6.920;2022-11-02T10:05:57;4.95;;;1.85;;
62832;SDS011;48891;49.220;6.920;2022-11-02T10:08:37;2.45;;;1.55;;
62832;SDS011;48891;49.220;6.920;2022-11-02T10:11:22;4.20;;;2.10;;
62832;SDS011;48891;49.220;6.920;2022-11-02T10:16:29;4.18;;;1.77;;
62832;SDS011;48891;49.220;6.920;2022-11-02T10:19:00;2.55;;;1.70;;
62832;SDS011;48891;49.220;6.920;2022-11-02T10:21:31;4.23;;;1.77;;
62832;SDS011;48891;49.220;6.920;2022-11-02T10:23:59;3.25;;;1.70;;
62832;SDS011;48891;49.220;6.920;2022-11-02T10:26:33;3.05;;;1.52;;
62832;SDS011;48891;49.220;6.920;2022-11-02T10:29:02;2.95;;;1.70;;
62832;SDS011;48891;49.220;6.920;2022-11-02T10:31:35;3.65;;;1.60;;
62832;SDS011;48891;49.220;6.920;2022-11-02T10:42:31;2.85;;;1.92;;
62832;SDS011;48891;49.220;6.920;2022-11-02T10:45:11;3.72;;;1.75;;
62832;SDS011;48891;49.220;6.920;2022-11-02T10:47:55;4.32;;;1.70;;
62832;SDS011;48891;49.220;6.920;2022-11-02T10:53:26;4.07;;;1.70;;
62832;SDS011;48891;49.220;6.920;2022-11-02T10:56:06;3.10;;;1.83;;
62832;SDS011;48891;49.220;6.920;2022-11-02T10:58:44;4.40;;;1.85;;
62832;SDS011;48891;49.220;6.920;2022-11-02T11:01:15;4.82;;;1.90;;
62832;SDS011;48891;49.220;6.920;2022-11-02T11:03:53;4.22;;;1.67;;
62832;SDS011;48891;49.220;6.920;2022-11-02T11:06:20;3.03;;;1.75;;
62832;SDS011;48891;49.220;6.920;2022-11-02T11:08:47;3.38;;;1.77;;
62832;SDS011;48891;49.220;6.920;2022-11-02T11:11:18;3.40;;;1.77;;
62832;SDS011;48891;49.220;6.920;2022-11-02T11:13:56;4.57;;;2.00;;
62832;SDS011;48891;49.220;6.920;2022-11-02T11:16:41;2.75;;;1.88;;
62832;SDS011;48891;49.220;6.920;2022-11-02T11:19:22;5.38;;;1.70;;
62832;SDS011;48891;49.220;6.920;2022-11-02T11:21:54;3.58;;;1.73;;
62832;SDS011;48891;49.220;6.920;2022-11-02T11:24:29;4.70;;;1.80;;
62832;SDS011;48891;49.220;6.920;2022-11-02T11:29:37;6.13;;;2.10;;
62832;SDS011;48891;49.220;6.920;2022-11-02T11:32:03;5.75;;;1.90;;
62832;SDS011;48891;49.220;6.920;2022-11-02T11:34:36;5.80;;;1.60;;
62832;SDS011;48891;49.220;6.920;2022-11-02T11:37:09;5.43;;;2.00;;
62832;SDS011;48891;49.220;6.920;2022-11-02T11:39:38;4.53;;;1.70;;
62832;SDS011;48891;49.220;6.920;2022-11-02T11:42:12;3.22;;;1.65;;
62832;SDS011;48891;49.220;6.920;2022-11-02T11:47:29;2.88;;;1.50;;
62832;SDS011;48891;49.220;6.920;2022-11-02T11:49:59;2.85;;;1.58;;
62832;SDS011;48891;49.220;6.920;2022-11-02T11:52:36;3.53;;;1.65;;
62832;SDS011;48891;49.220;6.920;2022-11-02T12:00:34;3.63;;;1.58;;
62832;SDS011;48891;49.220;6.920;2022-11-02T12:03:04;3.78;;;2.13;;
62832;SDS011;48891;49.220;6.920;2022-11-02T12:05:31;3.33;;;1.80;;
62832;SDS011;48891;49.220;6.920;2022-11-02T12:10:52;2.60;;;1.37;;
62832;SDS011;48891;49.220;6.920;2022-11-02T12:15:59;3.55;;;1.63;;
62832;SDS011;48891;49.220;6.920;2022-11-02T12:18:32;3.25;;;1.63;;
62832;SDS011;48891;49.220;6.920;2022-11-02T12:21:12;4.65;;;1.52;;
62832;SDS011;48891;49.220;6.920;2022-11-02T12:38:05;4.85;;;1.70;;
62832;SDS011;48891;49.220;6.920;2022-11-02T12:43:37;2.92;;;1.35;;
62832;SDS011;48891;49.220;6.920;2022-11-02T12:54:23;2.88;;;1.67;;
62832;SDS011;48891;49.220;6.920;2022-11-02T12:56:56;3.25;;;1.42;;
62832;SDS011;48891;49.220;6.920;2022-11-02T12:59:26;3.50;;;1.60;;
62832;SDS011;48891;49.220;6.920;2022-11-02T13:01:55;3.45;;;1.45;;
62832;SDS011;48891;49.220;6.920;2022-11-02T13:04:27;3.60;;;1.52;;
62832;SDS011;48891;49.220;6.920;2022-11-02T13:06:58;3.17;;;1.63;;
62832;SDS011;48891;49.220;6.920;2022-11-02T13:09:32;2.50;;;1.38;;
62832;SDS011;48891;49.220;6.920;2022-11-02T13:12:15;3.65;;;1.52;;
62832;SDS011;48891;49.220;6.920;2022-11-02T13:14:48;2.92;;;1.73;;
62832;SDS011;48891;49.220;6.920;2022-11-02T13:20:16;3.58;;;1.40;;
62832;SDS011;48891;49.220;6.920;2022-11-02T13:22:46;2.70;;;1.50;;
62832;SDS011;48891;49.220;6.920;2022-11-02T13:25:22;3.67;;;1.52;;
62832;SDS011;48891;49.220;6.920;2022-11-02T13:27:52;2.03;;;1.20;;
62832;SDS011;48891;49.220;6.920;2022-11-02T13:30:20;3.17;;;1.40;;
62832;SDS011;48891;49.220;6.920;2022-11-02T13:32:50;2.67;;;1.30;;
62832;SDS011;48891;49.220;6.920;2022-11-02T13:35:26;3.42;;;1.48;;
62832;SDS011;48891;49.220;6.920;2022-11-02T13:41:08;3.17;;;1.60;;
62832;SDS011;48891;49.220;6.920;2022-11-02T13:49:12;2.78;;;1.65;;
62832;SDS011;48891;49.220;6.920;2022-11-02T13:51:48;3.63;;;1.70;;
62832;SDS011;48891;49.220;6.920;2022-11-02T13:54:24;1.70;;;1.23;;
62832;SDS011;48891;49.220;6.920;2022-11-02T13:56:54;3.00;;;1.55;;
62832;SDS011;48891;49.220;6.920;2022-11-02T13:59:22;2.60;;;1.15;;
62832;SDS011;48891;49.220;6.920;2022-11-02T14:01:52;3.50;;;1.60;;
62832;SDS011;48891;49.220;6.920;2022-11-02T14:04:19;2.20;;;1.15;;
62832;SDS011;48891;49.220;6.920;2022-11-02T14:06:49;2.88;;;1.40;;
62832;SDS011;48891;49.220;6.920;2022-11-02T14:09:32;1.85;;;1.10;;
62832;SDS011;48891;49.220;6.920;2022-11-02T14:25:45;2.72;;;1.23;;
62832;SDS011;48891;49.220;6.920;2022-11-02T14:30:44;2.83;;;1.35;;
62832;SDS011;48891;49.220;6.920;2022-11-02T14:33:14;2.63;;;1.60;;
62832;SDS011;48891;49.220;6.920;2022-11-02T14:35:59;3.20;;;1.20;;
62832;SDS011;48891;49.220;6.920;2022-11-02T14:49:38;2.20;;;1.02;;
62832;SDS011;48891;49.220;6.920;2022-11-02T14:59:55;3.88;;;1.50;;
62832;SDS011;48891;49.220;6.920;2022-11-02T15:02:35;3.38;;;1.38;;
62832;SDS011;48891;49.220;6.920;2022-11-02T15:05:03;3.83;;;1.65;;
62832;SDS011;48891;49.220;6.920;2022-11-02T15:12:40;3.20;;;1.40;;
62832;SDS011;48891;49.220;6.920;2022-11-02T15:25:40;2.63;;;1.25;;
62832;SDS011;48891;49.220;6.920;2022-11-02T15:28:13;2.80;;;1.23;;
62832;SDS011;48891;49.220;6.920;2022-11-02T15:30:42;4.20;;;1.50;;
62832;SDS011;48891;49.220;6.920;2022-11-02T15:33:13;2.38;;;1.23;;
62832;SDS011;48891;49.220;6.920;2022-11-02T15:36:29;2.40;;;1.45;;
62832;SDS011;48891;49.220;6.920;2022-11-02T15:39:00;6.20;;;1.77;;
62832;SDS011;48891;49.220;6.920;2022-11-02T15:41:33;2.35;;;1.27;;
62832;SDS011;48891;49.220;6.920;2022-11-02T15:46:54;2.55;;;1.40;;
62832;SDS011;48891;49.220;6.920;2022-11-02T15:52:25;3.15;;;1.48;;
62832;SDS011;48891;49.220;6.920;2022-11-02T15:55:18;2.92;;;1.38;;
62832;SDS011;48891;49.220;6.920;2022-11-02T16:00:27;2.38;;;1.25;;
62832;SDS011;48891;49.220;6.920;2022-11-02T16:02:52;3.78;;;1.55;;
62832;SDS011;48891;49.220;6.920;2022-11-02T16:05:22;3.55;;;1.33;;
62832;SDS011;48891;49.220;6.920;2022-11-02T16:07:50;2.40;;;1.30;;
62832;SDS011;48891;49.220;6.920;2022-11-02T16:10:28;4.10;;;1.67;;
62832;SDS011;48891;49.220;6.920;2022-11-02T16:15:31;3.58;;;1.63;;
62832;SDS011;48891;49.220;6.920;2022-11-02T16:17:56;2.90;;;1.30;;
62832;SDS011;48891;49.220;6.920;2022-11-02T16:20:29;2.95;;;1.33;;
62832;SDS011;48891;49.220;6.920;2022-11-02T16:25:34;3.53;;;1.63;;
62832;SDS011;48891;49.220;6.920;2022-11-02T16:30:59;2.60;;;1.40;;
62832;SDS011;48891;49.220;6.920;2022-11-02T16:33:37;4.43;;;1.60;;
62832;SDS011;48891;49.220;6.920;2022-11-02T16:36:08;5.47;;;1.92;;
62832;SDS011;48891;49.220;6.920;2022-11-02T16:38:36;4.05;;;1.58;;
62832;SDS011;48891;49.220;6.920;2022-11-02T16:41:02;2.75;;;1.45;;
62832;SDS011;48891;49.220;6.920;2022-11-02T16:43:32;4.53;;;1.70;;
62832;SDS011;48891;49.220;6.920;2022-11-02T16:46:00;4.37;;;1.70;;
62832;SDS011;48891;49.220;6.920;2022-11-02T16:48:27;4.03;;;1.70;;
62832;SDS011;48891;49.220;6.920;2022-11-02T16:53:37;3.00;;;1.90;;
62832;SDS011;48891;49.220;6.920;2022-11-02T16:56:25;2.78;;;1.45;;
62832;SDS011;48891;49.220;6.920;2022-11-02T16:58:55;4.78;;;1.95;;
62832;SDS011;48891;49.220;6.920;2022-11-02T17:01:22;4.65;;;1.80;;
62832;SDS011;48891;49.220;6.920;2022-11-02T17:03:48;3.20;;;1.83;;
62832;SDS011;48891;49.220;6.920;2022-11-02T17:06:13;6.30;;;1.80;;
62832;SDS011;48891;49.220;6.920;2022-11-02T17:08:40;5.40;;;2.00;;
62832;SDS011;48891;49.220;6.920;2022-11-02T17:11:08;3.90;;;1.90;;
62832;SDS011;48891;49.220;6.920;2022-11-02T17:13:38;5.32;;;2.15;;
62832;SDS011;48891;49.220;6.920;2022-11-02T17:16:11;4.45;;;2.17;;
62832;SDS011;48891;49.220;6.920;2022-11-02T17:18:37;5.57;;;2.35;;
62832;SDS011;48891;49.220;6.920;2022-11-02T17:23:37;4.82;;;2.08;;
62832;SDS011;48891;49.220;6.920;2022-11-02T17:28:48;5.97;;;2.38;;
62832;SDS011;48891;49.220;6.920;2022-11-02T17:31:15;4.82;;;2.13;;
62832;SDS011;48891;49.220;6.920;2022-11-02T17:34:08;7.03;;;2.53;;
62832;SDS011;48891;49.220;6.920;2022-11-02T17:36:44;6.97;;;2.63;;
62832;SDS011;48891;49.220;6.920;2022-11-02T17:39:11;6.65;;;2.63;;
62832;SDS011;48891;49.220;6.920;2022-11-02T17:41:38;5.60;;;2.70;;
62832;SDS011;48891;49.220;6.920;2022-11-02T17:44:07;5.65;;;2.80;;
62832;SDS011;48891;49.220;6.920;2022-11-02T17:46:39;5.90;;;2.65;;
62832;SDS011;48891;49.220;6.920;2022-11-02T17:49:04;6.63;;;2.90;;
62832;SDS011;48891;49.220;6.920;2022-11-02T17:51:29;5.73;;;3.00;;